sensor_id;sensor_type;location;lat;lon;timestamp;pressure;altitude;pressure_sealevel;temperature;humidity
24013;BME280;12220;50.194;18.948;2022-11-11T00:00:34;103378.88;;;6.97;75.02
24013;BME280;12220;50.194;18.948;2022-11-11T00:02:41;103378.88;;;6.97;75.08
24013;BME280;12220;50.194;18.948;2022-11-11T00:04:42;103387.06;;;6.97;75.14
24013;BME280;12220;50.194;18.948;2022-11-11T00:06:46;103389.78;;;6.97;75.20
24013;BME280;12220;50.194;18.948;2022-11-11T00:08:48;103387.04;;;6.99;75.16
24013;BME280;12220;50.194;18.948;2022-11-11T00:10:50;103399.73;;;6.98;75.14
24013;BME280;12220;50.194;18.948;2022-11-11T00:12:51;103393.40;;;6.98;75.12
24013;BME280;12220;50.194;18.948;2022-11-11T00:14:53;103408.83;;;6.99;75.15
24013;BME280;12220;50.194;18.948;2022-11-11T00:17:03;103396.98;;;7.00;75.15
24013;BME280;12220;50.194;18.948;2022-11-11T00:19:25;103408.81;;;7.01;75.05
24013;BME280;12220;50.194;18.948;2022-11-11T00:21:46;103409.77;;;6.96;74.92
24013;BME280;12220;50.194;18.948;2022-11-11T00:26:32;103426.17;;;6.92;75.01
24013;BME280;12220;50.194;18.948;2022-11-11T00:28:34;103419.80;;;6.91;75.06
24013;BME280;12220;50.194;18.948;2022-11-11T00:30:35;103420.77;;;6.89;75.06
24013;BME280;12220;50.194;18.948;2022-11-11T00:32:36;103420.77;;;6.89;75.12
24013;BME280;12220;50.194;18.948;2022-11-11T00:34:44;103426.20;;;6.87;75.22
24013;BME280;12220;50.194;18.948;2022-11-11T00:37:05;103430.73;;;6.88;75.34
24013;BME280;12220;50.194;18.948;2022-11-11T00:39:07;103438.00;;;6.89;75.42
24013;BME280;12220;50.194;18.948;2022-11-11T00:41:08;103429.78;;;6.92;75.46
24013;BME280;12220;50.194;18.948;2022-11-11T00:43:09;103429.76;;;6.94;75.45
24013;BME280;12220;50.194;18.948;2022-11-11T00:45:21;103427.93;;;6.94;75.49
24013;BME280;12220;50.194;18.948;2022-11-11T00:47:22;103420.66;;;6.96;75.56
24013;BME280;12220;50.194;18.948;2022-11-11T00:49:35;103426.09;;;6.98;75.58
24013;BME280;12220;50.194;18.948;2022-11-11T00:51:48;103434.24;;;7.00;75.63
24013;BME280;12220;50.194;18.948;2022-11-11T00:53:49;103433.29;;;7.04;75.72
24013;BME280;12220;50.194;18.948;2022-11-11T00:55:50;103426.91;;;7.06;75.75
24013;BME280;12220;50.194;18.948;2022-11-11T00:57:51;103417.76;;;7.09;75.72
24013;BME280;12220;50.194;18.948;2022-11-11T00:59:53;103451.38;;;7.11;75.69
24013;BME280;12220;50.194;18.948;2022-11-11T01:01:56;103421.40;;;7.11;75.65
24013;BME280;12220;50.194;18.948;2022-11-11T01:03:58;103421.40;;;7.11;75.68
24013;BME280;12220;50.194;18.948;2022-11-11T01:06:01;103413.22;;;7.11;75.77
24013;BME280;12220;50.194;18.948;2022-11-11T01:08:03;103409.55;;;7.12;75.84
24013;BME280;12220;50.194;18.948;2022-11-11T01:10:11;103449.52;;;7.13;75.88
24013;BME280;12220;50.194;18.948;2022-11-11T01:12:13;103416.81;;;7.13;75.95
24013;BME280;12220;50.194;18.948;2022-11-11T01:14:15;103411.34;;;7.14;76.03
24013;BME280;12220;50.194;18.948;2022-11-11T01:16:21;103411.30;;;7.18;76.13
24013;BME280;12220;50.194;18.948;2022-11-11T01:18:27;103406.73;;;7.21;76.22
24013;BME280;12220;50.194;18.948;2022-11-11T01:20:29;103403.95;;;7.24;76.26
24013;BME280;12220;50.194;18.948;2022-11-11T01:22:30;103400.30;;;7.27;76.30
24013;BME280;12220;50.194;18.948;2022-11-11T01:24:31;103401.15;;;7.30;76.33
24013;BME280;12220;50.194;18.948;2022-11-11T01:26:42;103397.45;;;7.35;76.34
24013;BME280;12220;50.194;18.948;2022-11-11T01:28:43;103396.52;;;7.37;76.38
24013;BME280;12220;50.194;18.948;2022-11-11T01:30:45;103395.55;;;7.41;76.39
24013;BME280;12220;50.194;18.948;2022-11-11T01:32:46;103390.08;;;7.43;76.42
24013;BME280;12220;50.194;18.948;2022-11-11T01:34:57;103397.27;;;7.47;76.44
24013;BME280;12220;50.194;18.948;2022-11-11T01:36:58;103398.16;;;7.49;76.50
24013;BME280;12220;50.194;18.948;2022-11-11T01:38:59;103400.82;;;7.54;76.47
24013;BME280;12220;50.194;18.948;2022-11-11T01:41:01;103392.62;;;7.55;76.43
24013;BME280;12220;50.194;18.948;2022-11-11T01:43:21;103396.23;;;7.57;76.44
24013;BME280;12220;50.194;18.948;2022-11-11T01:47:55;103399.77;;;7.62;76.63
24013;BME280;12220;50.194;18.948;2022-11-11T01:50:16;103402.43;;;7.67;76.63
24013;BME280;12220;50.194;18.948;2022-11-11T01:52:27;103396.03;;;7.70;76.68
24013;BME280;12220;50.194;18.948;2022-11-11T01:56:46;103391.42;;;7.75;76.71
24013;BME280;12220;50.194;18.948;2022-11-11T01:58:52;103398.61;;;7.79;76.69
24013;BME280;12220;50.194;18.948;2022-11-11T02:00:57;103395.83;;;7.82;76.70
24013;BME280;12220;50.194;18.948;2022-11-11T02:03:04;103395.83;;;7.82;76.73
24013;BME280;12220;50.194;18.948;2022-11-11T02:05:11;103399.45;;;7.84;76.73
24013;BME280;12220;50.194;18.948;2022-11-11T02:07:25;103394.85;;;7.86;76.82
24013;BME280;12220;50.194;18.948;2022-11-11T02:09:27;103402.13;;;7.87;76.91
24013;BME280;12220;50.194;18.948;2022-11-11T02:11:38;103399.33;;;7.90;77.02
24013;BME280;12220;50.194;18.948;2022-11-11T02:13:56;103406.55;;;7.94;77.14
24013;BME280;12220;50.194;18.948;2022-11-11T02:16:18;103407.40;;;7.99;77.24
24013;BME280;12220;50.194;18.948;2022-11-11T02:18:19;103398.23;;;8.02;77.30
24013;BME280;12220;50.194;18.948;2022-11-11T02:20:25;103405.45;;;8.06;77.34
24013;BME280;12220;50.194;18.948;2022-11-11T02:22:37;103409.05;;;8.10;77.43
24013;BME280;12220;50.194;18.948;2022-11-11T02:24:41;103113.72;;;6.39;77.36
24013;BME280;12220;50.194;18.948;2022-11-11T02:26:43;103416.20;;;8.17;77.58
24013;BME280;12220;50.194;18.948;2022-11-11T02:28:46;103426.11;;;8.21;77.62
24013;BME280;12220;50.194;18.948;2022-11-11T02:30:47;103419.70;;;8.24;77.63
24013;BME280;12220;50.194;18.948;2022-11-11T02:32:52;103416.92;;;8.27;77.62
24013;BME280;12220;50.194;18.948;2022-11-11T02:34:53;103418.73;;;8.28;77.65
24013;BME280;12220;50.194;18.948;2022-11-11T02:36:55;103414.10;;;8.31;77.72
24013;BME280;12220;50.194;18.948;2022-11-11T02:38:56;103411.34;;;8.34;77.77
24013;BME280;12220;50.194;18.948;2022-11-11T02:41:05;103415.82;;;8.37;77.78
24013;BME280;12220;50.194;18.948;2022-11-11T02:43:27;103417.60;;;8.40;77.79
24013;BME280;12220;50.194;18.948;2022-11-11T02:45:29;103405.77;;;8.41;77.84
24013;BME280;12220;50.194;18.948;2022-11-11T02:47:30;103417.54;;;8.44;77.82
24013;BME280;12220;50.194;18.948;2022-11-11T02:49:31;103412.98;;;8.46;77.90
24013;BME280;12220;50.194;18.948;2022-11-11T02:51:42;103411.13;;;8.47;77.93
24013;BME280;12220;50.194;18.948;2022-11-11T02:53:43;103419.30;;;8.48;77.94
24013;BME280;12220;50.194;18.948;2022-11-11T02:55:44;103431.09;;;8.52;77.95
24013;BME280;12220;50.194;18.948;2022-11-11T02:57:45;103431.05;;;8.53;77.94
24013;BME280;12220;50.194;18.948;2022-11-11T02:59:58;103431.03;;;8.55;77.99
24013;BME280;12220;50.194;18.948;2022-11-11T03:02:01;103429.19;;;8.55;78.02
24013;BME280;12220;50.194;18.948;2022-11-11T03:04:02;103431.88;;;8.57;78.05
24013;BME280;12220;50.194;18.948;2022-11-11T03:06:03;103427.30;;;8.59;78.05
24013;BME280;12220;50.194;18.948;2022-11-11T03:08:12;103421.79;;;8.62;77.96
24013;BME280;12220;50.194;18.948;2022-11-11T03:10:13;103422.67;;;8.63;78.05
24013;BME280;12220;50.194;18.948;2022-11-11T03:12:15;103420.84;;;8.63;78.05
24013;BME280;12220;50.194;18.948;2022-11-11T03:14:16;103415.37;;;8.63;78.00
24013;BME280;12220;50.194;18.948;2022-11-11T03:16:27;103422.67;;;8.63;77.94
24013;BME280;12220;50.194;18.948;2022-11-11T03:18:48;103422.70;;;8.61;77.96
24013;BME280;12220;50.194;18.948;2022-11-11T03:20:49;103426.35;;;8.60;78.03
24013;BME280;12220;50.194;18.948;2022-11-11T03:23:04;103424.55;;;8.61;78.06
24013;BME280;12220;50.194;18.948;2022-11-11T03:25:06;103411.78;;;8.61;78.05
24013;BME280;12220;50.194;18.948;2022-11-11T03:27:20;103409.92;;;8.62;78.00
24013;BME280;12220;50.194;18.948;2022-11-11T03:29:31;103419.09;;;8.61;78.00
24013;BME280;12220;50.194;18.948;2022-11-11T03:31:32;103422.70;;;8.61;77.97
24013;BME280;12220;50.194;18.948;2022-11-11T03:33:33;103430.01;;;8.61;77.93
24013;BME280;12220;50.194;18.948;2022-11-11T03:35:35;103423.66;;;8.59;77.82
24013;BME280;12220;50.194;18.948;2022-11-11T03:37:46;103425.54;;;8.57;77.74
24013;BME280;12220;50.194;18.948;2022-11-11T03:40:08;103426.54;;;8.51;77.79
24013;BME280;12220;50.194;18.948;2022-11-11T03:42:09;103417.49;;;8.47;77.84
24013;BME280;12220;50.194;18.948;2022-11-11T03:44:10;103404.75;;;8.48;77.95
24013;BME280;12220;50.194;18.948;2022-11-11T03:46:11;103413.00;;;8.45;78.02
24013;BME280;12220;50.194;18.948;2022-11-11T03:48:13;103407.55;;;8.45;78.08
24013;BME280;12220;50.194;18.948;2022-11-11T03:50:15;103412.05;;;8.46;78.15
24013;BME280;12220;50.194;18.948;2022-11-11T03:52:16;103412.95;;;8.48;78.13
24013;BME280;12220;50.194;18.948;2022-11-11T03:54:20;103405.66;;;8.47;78.13
24013;BME280;12220;50.194;18.948;2022-11-11T03:56:21;103407.52;;;8.46;78.11
24013;BME280;12220;50.194;18.948;2022-11-11T03:58:22;103409.31;;;8.46;78.05
24013;BME280;12220;50.194;18.948;2022-11-11T04:00:26;103412.09;;;8.44;78.06
24013;BME280;12220;50.194;18.948;2022-11-11T04:02:35;103409.35;;;8.44;78.12
24013;BME280;12220;50.194;18.948;2022-11-11T04:04:56;103404.81;;;8.43;78.12
24013;BME280;12220;50.194;18.948;2022-11-11T04:07:18;103394.85;;;8.41;78.09
24013;BME280;12220;50.194;18.948;2022-11-11T04:09:39;103398.48;;;8.40;78.15
24013;BME280;12220;50.194;18.948;2022-11-11T04:12:00;103400.35;;;8.37;78.18
24013;BME280;12220;50.194;18.948;2022-11-11T04:14:04;103396.68;;;8.38;78.23
24013;BME280;12220;50.194;18.948;2022-11-11T04:16:19;103394.01;;;8.35;78.23
24013;BME280;12220;50.194;18.948;2022-11-11T04:18:20;103395.83;;;8.36;78.19
24013;BME280;12220;50.194;18.948;2022-11-11T04:20:33;103396.77;;;8.34;78.13
24013;BME280;12220;50.194;18.948;2022-11-11T04:22:46;103394.98;;;8.31;78.11
24013;BME280;12220;50.194;18.948;2022-11-11T04:24:48;103405.05;;;8.29;78.06
24013;BME280;12220;50.194;18.948;2022-11-11T04:27:09;103399.63;;;8.28;78.01
24013;BME280;12220;50.194;18.948;2022-11-11T04:29:11;103402.37;;;8.26;77.98
24013;BME280;12220;50.194;18.948;2022-11-11T04:31:24;103406.08;;;8.22;77.80
24013;BME280;12220;50.194;18.948;2022-11-11T04:33:27;103407.97;;;8.18;77.77
24013;BME280;12220;50.194;18.948;2022-11-11T04:35:28;103408.03;;;8.14;77.81
24013;BME280;12220;50.194;18.948;2022-11-11T04:37:32;103416.25;;;8.12;77.89
24013;BME280;12220;50.194;18.948;2022-11-11T04:39:34;103413.55;;;8.11;77.93
24013;BME280;12220;50.194;18.948;2022-11-11T04:41:47;103419.01;;;8.11;77.96
24013;BME280;12220;50.194;18.948;2022-11-11T04:43:48;103422.70;;;8.10;77.93
24013;BME280;12220;50.194;18.948;2022-11-11T04:46:01;103429.98;;;8.08;77.93
24013;BME280;12220;50.194;18.948;2022-11-11T04:48:04;103439.98;;;8.09;77.91
24013;BME280;12220;50.194;18.948;2022-11-11T04:50:06;103440.95;;;8.05;77.73
24013;BME280;12220;50.194;18.948;2022-11-11T04:52:08;103438.28;;;8.01;77.77
24013;BME280;12220;50.194;18.948;2022-11-11T04:54:22;103440.14;;;7.98;77.71
24013;BME280;12220;50.194;18.948;2022-11-11T04:56:23;103442.95;;;7.93;77.67
24013;BME280;12220;50.194;18.948;2022-11-11T04:58:36;103443.03;;;7.89;77.62
24013;BME280;12220;50.194;18.948;2022-11-11T05:00:37;103444.91;;;7.85;77.73
24013;BME280;12220;50.194;18.948;2022-11-11T05:02:39;103444.03;;;7.81;77.67
24013;BME280;12220;50.194;18.948;2022-11-11T05:04:52;103445.92;;;7.78;77.71
24013;BME280;12220;50.194;18.948;2022-11-11T05:06:53;103455.05;;;7.75;77.71
24013;BME280;12220;50.194;18.948;2022-11-11T05:09:06;103402.76;;;7.44;77.60
24013;BME280;12220;50.194;18.948;2022-11-11T05:11:08;103456.99;;;7.65;77.70
24013;BME280;12220;50.194;18.948;2022-11-11T05:13:10;103454.32;;;7.62;77.84
24013;BME280;12220;50.194;18.948;2022-11-11T05:15:23;103465.25;;;7.61;77.80
24013;BME280;12220;50.194;18.948;2022-11-11T05:17:36;103466.23;;;7.55;77.78
24013;BME280;12220;50.194;18.948;2022-11-11T05:19:49;103468.09;;;7.53;77.89
24013;BME280;12220;50.194;18.948;2022-11-11T05:22:14;103468.13;;;7.52;78.00
24013;BME280;12220;50.194;18.948;2022-11-11T05:24:25;103476.28;;;7.53;78.08
24013;BME280;12220;50.194;18.948;2022-11-11T05:26:47;103479.03;;;7.52;78.04
24013;BME280;12220;50.194;18.948;2022-11-11T05:28:48;103483.55;;;7.51;78.04
24013;BME280;12220;50.194;18.948;2022-11-11T05:30:49;103487.18;;;7.53;78.05
24013;BME280;12220;50.194;18.948;2022-11-11T05:32:50;103486.23;;;7.54;78.05
24013;BME280;12220;50.194;18.948;2022-11-11T05:35:02;103480.79;;;7.54;78.01
24013;BME280;12220;50.194;18.948;2022-11-11T05:37:04;103494.44;;;7.53;77.91
24013;BME280;12220;50.194;18.948;2022-11-11T05:39:05;103489.93;;;7.52;77.86
24013;BME280;12220;50.194;18.948;2022-11-11T05:41:07;103499.02;;;7.50;77.83
24013;BME280;12220;50.194;18.948;2022-11-11T05:43:17;103510.83;;;7.51;77.86
24013;BME280;12220;50.194;18.948;2022-11-11T05:45:18;103513.58;;;7.49;77.85
24013;BME280;12220;50.194;18.948;2022-11-11T05:47:19;103520.86;;;7.49;77.75
24013;BME280;12220;50.194;18.948;2022-11-11T05:49:21;103519.96;;;7.47;77.71
24013;BME280;12220;50.194;18.948;2022-11-11T05:51:32;103517.23;;;7.47;77.77
24013;BME280;12220;50.194;18.948;2022-11-11T05:53:33;103508.16;;;7.46;77.82
24013;BME280;12220;50.194;18.948;2022-11-11T05:55:34;103502.71;;;7.46;77.85
24013;BME280;12220;50.194;18.948;2022-11-11T05:57:35;103503.61;;;7.48;77.86
24013;BME280;12220;50.194;18.948;2022-11-11T05:59:47;103505.42;;;7.48;77.71
24013;BME280;12220;50.194;18.948;2022-11-11T06:01:48;103505.45;;;7.46;77.62
24013;BME280;12220;50.194;18.948;2022-11-11T06:03:49;103508.19;;;7.45;77.56
24013;BME280;12220;50.194;18.948;2022-11-11T06:05:51;103509.14;;;7.41;77.48
24013;BME280;12220;50.194;18.948;2022-11-11T06:08:02;103511.91;;;7.38;77.59
24013;BME280;12220;50.194;18.948;2022-11-11T06:10:04;103515.56;;;7.35;77.60
24013;BME280;12220;50.194;18.948;2022-11-11T06:12:17;103519.27;;;7.32;77.62
24013;BME280;12220;50.194;18.948;2022-11-11T06:14:19;103521.05;;;7.32;77.66
24013;BME280;12220;50.194;18.948;2022-11-11T06:16:23;103521.98;;;7.32;77.71
24013;BME280;12220;50.194;18.948;2022-11-11T06:18:25;103520.16;;;7.31;77.76
24013;BME280;12220;50.194;18.948;2022-11-11T06:20:26;103517.42;;;7.33;77.81
24013;BME280;12220;50.194;18.948;2022-11-11T06:22:27;103508.33;;;7.34;77.78
24013;BME280;12220;50.194;18.948;2022-11-11T06:24:40;103513.80;;;7.34;77.76
24013;BME280;12220;50.194;18.948;2022-11-11T06:26:41;103503.80;;;7.33;77.78
24013;BME280;12220;50.194;18.948;2022-11-11T06:28:53;103509.23;;;7.35;77.74
24013;BME280;12220;50.194;18.948;2022-11-11T06:30:55;103510.14;;;7.33;77.70
24013;BME280;12220;50.194;18.948;2022-11-11T06:32:56;103507.42;;;7.32;77.57
24013;BME280;12220;50.194;18.948;2022-11-11T06:34:57;103512.91;;;7.30;77.78
24013;BME280;12220;50.194;18.948;2022-11-11T06:36:59;103511.07;;;7.32;77.80
24013;BME280;12220;50.194;18.948;2022-11-11T06:39:00;103504.67;;;7.33;77.82
24013;BME280;12220;50.194;18.948;2022-11-11T06:41:08;103504.66;;;7.35;77.80
24013;BME280;12220;50.194;18.948;2022-11-11T06:43:12;103501.05;;;7.35;77.79
24013;BME280;12220;50.194;18.948;2022-11-11T06:45:14;103492.88;;;7.35;77.80
24013;BME280;12220;50.194;18.948;2022-11-11T06:47:15;103503.75;;;7.36;77.77
24013;BME280;12220;50.194;18.948;2022-11-11T06:49:22;103502.87;;;7.36;77.74
24013;BME280;12220;50.194;18.948;2022-11-11T06:51:24;103510.12;;;7.35;77.74
24013;BME280;12220;50.194;18.948;2022-11-11T06:53:25;103506.49;;;7.35;77.76
24013;BME280;12220;50.194;18.948;2022-11-11T06:55:29;103507.40;;;7.35;77.78
24013;BME280;12220;50.194;18.948;2022-11-11T06:57:37;103511.05;;;7.36;77.78
24013;BME280;12220;50.194;18.948;2022-11-11T06:59:39;103505.63;;;7.32;77.78
24013;BME280;12220;50.194;18.948;2022-11-11T07:01:40;103505.63;;;7.32;77.80
24013;BME280;12220;50.194;18.948;2022-11-11T07:03:41;103510.16;;;7.32;77.87
24013;BME280;12220;50.194;18.948;2022-11-11T07:05:52;103506.55;;;7.31;77.94
24013;BME280;12220;50.194;18.948;2022-11-11T07:07:55;103502.91;;;7.32;78.01
24013;BME280;12220;50.194;18.948;2022-11-11T07:09:57;103500.17;;;7.32;78.10
24013;BME280;12220;50.194;18.948;2022-11-11T07:11:58;103500.15;;;7.36;78.16
24013;BME280;12220;50.194;18.948;2022-11-11T07:14:08;103506.46;;;7.38;78.24
24013;BME280;12220;50.194;18.948;2022-11-11T07:16:09;103494.64;;;7.39;78.37
24013;BME280;12220;50.194;18.948;2022-11-11T07:18:12;103500.94;;;7.42;78.51
24013;BME280;12220;50.194;18.948;2022-11-11T07:20:14;103502.71;;;7.46;78.66
24013;BME280;12220;50.194;18.948;2022-11-11T07:22:24;103501.76;;;7.50;78.75
24013;BME280;12220;50.194;18.948;2022-11-11T07:24:25;103508.05;;;7.56;78.91
24013;BME280;12220;50.194;18.948;2022-11-11T07:26:26;103508.90;;;7.61;79.02
24013;BME280;12220;50.194;18.948;2022-11-11T07:28:27;103506.99;;;7.67;79.17
24013;BME280;12220;50.194;18.948;2022-11-11T07:30:39;103506.91;;;7.74;79.27
24013;BME280;12220;50.194;18.948;2022-11-11T07:32:46;103511.40;;;7.78;79.36
24013;BME280;12220;50.194;18.948;2022-11-11T07:34:48;103514.91;;;7.84;79.48
24013;BME280;12220;50.194;18.948;2022-11-11T07:36:50;103516.62;;;7.93;79.62
24013;BME280;12220;50.194;18.948;2022-11-11T07:38:54;103506.51;;;8.01;79.88
24013;BME280;12220;50.194;18.948;2022-11-11T07:40:55;103500.00;;;8.10;80.02
24013;BME280;12220;50.194;18.948;2022-11-11T07:42:56;103495.31;;;8.20;80.15
24013;BME280;12220;50.194;18.948;2022-11-11T07:44:57;103488.77;;;8.30;80.28
24013;BME280;12220;50.194;18.948;2022-11-11T07:47:09;103491.27;;;8.43;80.39
24013;BME280;12220;50.194;18.948;2022-11-11T07:49:10;103484.73;;;8.54;80.60
24013;BME280;12220;50.194;18.948;2022-11-11T07:51:12;103479.98;;;8.66;80.71
24013;BME280;12220;50.194;18.948;2022-11-11T07:53:13;103475.20;;;8.79;80.68
24013;BME280;12220;50.194;18.948;2022-11-11T07:55:24;103482.25;;;8.90;80.61
24013;BME280;12220;50.194;18.948;2022-11-11T07:57:25;103477.52;;;9.00;80.61
24013;BME280;12220;50.194;18.948;2022-11-11T07:59:26;103481.88;;;9.11;80.60
24013;BME280;12220;50.194;18.948;2022-11-11T08:01:28;103476.17;;;9.21;80.71
24013;BME280;12220;50.194;18.948;2022-11-11T08:03:39;103481.43;;;9.32;80.57
24013;BME280;12220;50.194;18.948;2022-11-11T08:06:01;103470.24;;;9.43;80.49
24013;BME280;12220;50.194;18.948;2022-11-11T08:08:07;103465.53;;;9.51;80.45
24013;BME280;12220;50.194;18.948;2022-11-11T08:10:10;103468.08;;;9.59;80.47
24013;BME280;12220;50.194;18.948;2022-11-11T08:12:12;103467.90;;;9.67;80.31
24013;BME280;12220;50.194;18.948;2022-11-11T08:14:25;103474.96;;;9.77;80.08
24013;BME280;12220;50.194;18.948;2022-11-11T08:16:26;103499.52;;;9.82;79.89
24013;BME280;12220;50.194;18.948;2022-11-11T08:18:27;103471.07;;;9.89;79.73
24013;BME280;12220;50.194;18.948;2022-11-11T08:20:28;103469.98;;;9.94;79.48
24013;BME280;12220;50.194;18.948;2022-11-11T08:22:39;103468.02;;;10.01;79.32
24013;BME280;12220;50.194;18.948;2022-11-11T08:24:41;103468.84;;;10.05;79.08
24013;BME280;12220;50.194;18.948;2022-11-11T08:26:42;103453.32;;;10.05;78.83
24013;BME280;12220;50.194;18.948;2022-11-11T08:28:44;103451.43;;;10.07;78.62
24013;BME280;12220;50.194;18.948;2022-11-11T08:30:52;103465.08;;;10.09;78.38
24013;BME280;12220;50.194;18.948;2022-11-11T08:33:01;103471.48;;;10.09;78.26
24013;BME280;12220;50.194;18.948;2022-11-11T08:35:03;103476.88;;;10.12;78.16
24013;BME280;12220;50.194;18.948;2022-11-11T08:37:04;103476.83;;;10.14;77.92
24013;BME280;12220;50.194;18.948;2022-11-11T08:39:11;103473.13;;;10.17;77.66
24013;BME280;12220;50.194;18.948;2022-11-11T08:41:13;103475.83;;;10.18;77.63
24013;BME280;12220;50.194;18.948;2022-11-11T08:43:14;103481.27;;;10.20;77.53
24013;BME280;12220;50.194;18.948;2022-11-11T08:45:15;103244.60;;;8.86;77.35
24013;BME280;12220;50.194;18.948;2022-11-11T08:47:16;103489.36;;;10.24;77.27
24013;BME280;12220;50.194;18.948;2022-11-11T08:49:21;103501.21;;;10.25;77.15
24013;BME280;12220;50.194;18.948;2022-11-11T08:51:23;103498.38;;;10.28;77.07
24013;BME280;12220;50.194;18.948;2022-11-11T08:53:27;103494.63;;;10.32;77.04
24013;BME280;12220;50.194;18.948;2022-11-11T08:55:28;103494.58;;;10.35;77.03
24013;BME280;12220;50.194;18.948;2022-11-11T08:57:29;103494.51;;;10.40;77.09
24013;BME280;12220;50.194;18.948;2022-11-11T08:59:31;103476.09;;;10.45;77.13
24013;BME280;12220;50.194;18.948;2022-11-11T09:01:41;103485.06;;;10.52;77.10
24013;BME280;12220;50.194;18.948;2022-11-11T09:03:43;103485.78;;;10.58;77.00
24013;BME280;12220;50.194;18.948;2022-11-11T09:05:46;103492.02;;;10.65;76.92
24013;BME280;12220;50.194;18.948;2022-11-11T09:07:47;103499.15;;;10.72;76.76
24013;BME280;12220;50.194;18.948;2022-11-11T09:09:58;103505.38;;;10.77;76.63
24013;BME280;12220;50.194;18.948;2022-11-11T09:12:00;103505.27;;;10.82;76.40
24013;BME280;12220;50.194;18.948;2022-11-11T09:14:01;103504.27;;;10.85;76.23
24013;BME280;12220;50.194;18.948;2022-11-11T09:16:02;103509.67;;;10.88;75.92
24013;BME280;12220;50.194;18.948;2022-11-11T09:18:13;103505.02;;;10.91;75.89
24013;BME280;12220;50.194;18.948;2022-11-11T09:20:15;103502.15;;;10.96;75.94
24013;BME280;12220;50.194;18.948;2022-11-11T09:22:16;103503.86;;;11.00;75.83
24013;BME280;12220;50.194;18.948;2022-11-11T09:24:17;103501.87;;;11.05;75.78
24013;BME280;12220;50.194;18.948;2022-11-11T09:26:28;103513.67;;;11.09;75.63
24013;BME280;12220;50.194;18.948;2022-11-11T09:28:30;103508.14;;;11.10;75.53
24013;BME280;12220;50.194;18.948;2022-11-11T09:30:33;103508.97;;;11.14;75.47
24013;BME280;12220;50.194;18.948;2022-11-11T09:32:35;103509.81;;;11.16;75.43
24013;BME280;12220;50.194;18.948;2022-11-11T09:34:43;103499.73;;;11.16;75.24
24013;BME280;12220;50.194;18.948;2022-11-11T09:36:44;103507.92;;;11.18;75.23
24013;BME280;12220;50.194;18.948;2022-11-11T09:38:45;103500.61;;;11.19;75.20
24013;BME280;12220;50.194;18.948;2022-11-11T09:50:10;103509.55;;;11.25;74.75
24013;BME280;12220;50.194;18.948;2022-11-11T09:52:18;103515.95;;;11.26;74.73
24013;BME280;12220;50.194;18.948;2022-11-11T09:56:37;103508.66;;;11.25;74.41
24013;BME280;12220;50.194;18.948;2022-11-11T10:03:16;103507.58;;;11.30;74.53
24013;BME280;12220;50.194;18.948;2022-11-11T10:05:25;103503.86;;;11.33;74.57
24013;BME280;12220;50.194;18.948;2022-11-11T10:07:36;103505.58;;;11.36;74.55
24013;BME280;12220;50.194;18.948;2022-11-11T10:09:48;103502.80;;;11.37;74.12
24013;BME280;12220;50.194;18.948;2022-11-11T10:14:02;103514.60;;;11.41;74.08
24013;BME280;12220;50.194;18.948;2022-11-11T10:20:33;103510.72;;;11.48;73.95
24013;BME280;12220;50.194;18.948;2022-11-11T10:22:40;103515.23;;;11.50;73.76
24013;BME280;12220;50.194;18.948;2022-11-11T10:24:49;103509.75;;;11.50;72.77
24013;BME280;12220;50.194;18.948;2022-11-11T10:26:52;103510.68;;;11.49;72.21
24013;BME280;12220;50.194;18.948;2022-11-11T10:28:53;103508.83;;;11.50;72.27
24013;BME280;12220;50.194;18.948;2022-11-11T10:30:55;103507.01;;;11.50;72.01
24013;BME280;12220;50.194;18.948;2022-11-11T10:35:25;103494.27;;;11.48;71.46
24013;BME280;12220;50.194;18.948;2022-11-11T10:37:37;103504.37;;;11.46;71.39
24013;BME280;12220;50.194;18.948;2022-11-11T10:41:52;103503.20;;;11.55;72.04
24013;BME280;12220;50.194;18.948;2022-11-11T10:43:54;103535.05;;;11.60;72.01
24013;BME280;12220;50.194;18.948;2022-11-11T10:48:12;103483.52;;;11.70;71.79
24013;BME280;12220;50.194;18.948;2022-11-11T10:52:35;103483.11;;;11.84;72.06
24013;BME280;12220;50.194;18.948;2022-11-11T10:54:49;103482.85;;;11.92;72.22
24013;BME280;12220;50.194;18.948;2022-11-11T10:57:01;103480.80;;;12.00;72.34
24013;BME280;12220;50.194;18.948;2022-11-11T11:01:24;103468.34;;;12.16;72.28
24013;BME280;12220;50.194;18.948;2022-11-11T11:05:54;103462.32;;;12.32;71.72
24013;BME280;12220;50.194;18.948;2022-11-11T11:08:09;103468.57;;;12.37;71.34
24013;BME280;12220;50.194;18.948;2022-11-11T11:10:19;103472.09;;;12.41;70.80
24013;BME280;12220;50.194;18.948;2022-11-11T11:14:50;103469.94;;;12.50;70.89
24013;BME280;12220;50.194;18.948;2022-11-11T11:16:57;103464.22;;;12.56;70.90
24013;BME280;12220;50.194;18.948;2022-11-11T11:21:13;103457.47;;;12.67;70.72
24013;BME280;12220;50.194;18.948;2022-11-11T11:24:01;103466.43;;;12.72;70.69
24013;BME280;12220;50.194;18.948;2022-11-11T11:25:32;103467.19;;;12.77;70.58
24013;BME280;12220;50.194;18.948;2022-11-11T11:27:33;103474.46;;;12.78;70.14
24013;BME280;12220;50.194;18.948;2022-11-11T11:29:42;103476.15;;;12.82;69.93
24013;BME280;12220;50.194;18.948;2022-11-11T11:31:43;103477.83;;;12.86;70.00
24013;BME280;12220;50.194;18.948;2022-11-11T11:33:54;103474.98;;;12.89;69.16
24013;BME280;12220;50.194;18.948;2022-11-11T11:36:14;103475.80;;;12.91;69.00
24013;BME280;12220;50.194;18.948;2022-11-11T11:38:16;103471.16;;;12.94;68.80
24013;BME280;12220;50.194;18.948;2022-11-11T11:40:18;103471.88;;;12.99;69.04
24013;BME280;12220;50.194;18.948;2022-11-11T11:44:37;103469.63;;;13.10;69.24